Cole Guidry — WDJ3088 — position and weather

sailwx.info

Track history (hours):
 
Tides and Currents Weather Stations Pressure Air Temp Water Temp Dewpoint Dewpoint Depression Visibility Wind Speed Wind Dir Waves Ship Positions

Cole Guidry

Owner: Danielle Marine Towing LLC, Cut Off, LA. More information available from US FCC via Universal Licensing System and Coast Guard Vessel Documentation Center.

Last reported at 2018-Jul-16 14:00 UTC. Time now 2018-Jul-16 14:29 UTC.
Position N 29°49' W 093°59'.

Length 24 m; draft 3 m.

Type: . MMSI: 367764630.

Date/timePositionNaut miles runAvg speedWind from/ knotsBaromVisibWave heightAir tempDewpointWater temp
2018-Jul-16 14:00N 29°49' W 093°59'2 4.6
2018-Jul-16 13:30N 29°47' W 094°01'2 4.7
2018-Jul-16 13:00N 29°46' W 094°03'2 4.6
2018-Jul-16 12:30N 29°44' W 094°05'2 4.4
2018-Jul-16 12:00N 29°43' W 094°07'2 3.8
2018-Jul-16 11:30N 29°42' W 094°09'2 3.8
2018-Jul-16 11:00N 29°41' W 094°11'2 5.0
2018-Jul-16 10:31N 29°40' W 094°13'2 4.8
2018-Jul-16 10:01N 29°39' W 094°16'2 4.8
2018-Jul-16 09:30N 29°38' W 094°18'2 4.9
2018-Jul-16 09:00N 29°37' W 094°21'2 4.5
2018-Jul-16 08:30N 29°36' W 094°23'2 3.2
2018-Jul-16 07:59N 29°35' W 094°25'2 4.2
2018-Jul-16 07:30N 29°34' W 094°27'2 4.7
2018-Jul-16 07:00N 29°32' W 094°29'3 4.6
2018-Jul-16 06:27N 29°31' W 094°31'1 3.3
2018-Jul-16 06:00N 29°30' W 094°33'2 4.7
2018-Jul-16 05:30N 29°29' W 094°35'2 4.8
2018-Jul-16 05:00N 29°28' W 094°38'2 4.8
2018-Jul-16 04:30N 29°27' W 094°40'1 2.5
2018-Jul-16 04:00N 29°27' W 094°42'2 3.5
2018-Jul-16 03:28N 29°26' W 094°43'0 0.8
2018-Jul-16 03:00N 29°25' W 094°43'2 3.1
2018-Jul-16 02:17N 29°24' W 094°45'1 4.5
2018-Jul-16 02:00N 29°23' W 094°46'3 5.8
2018-Jul-16 01:30N 29°22' W 094°50'3 5.7
2018-Jul-16 01:00N 29°23' W 094°53'1 1.4
2018-Jul-16 00:28N 29°22' W 094°53'0 0.0
2018-Jul-15 17:06N 29°22' W 094°53'0 0.1
2018-Jul-15 17:00N 29°22' W 094°53'0 0.0
2018-Jul-15 12:13N 29°22' W 094°53'0 0.0
2018-Jul-15 11:59N 29°22' W 094°53'0 0.0
2018-Jul-15 11:30N 29°22' W 094°53'0 0.0
2018-Jul-15 10:56N 29°22' W 094°53'0 0.0
2018-Jul-15 10:28N 29°22' W 094°53'0 0.0
2018-Jul-15 09:59N 29°22' W 094°53'0 0.0
2018-Jul-15 08:22N 29°22' W 094°53'0 0.0
2018-Jul-15 07:47N 29°22' W 094°53'0 0.0
2018-Jul-15 07:29N 29°22' W 094°53'0 0.0
2018-Jul-15 06:54N 29°22' W 094°53'0 0.0
2018-Jul-15 06:13N 29°22' W 094°53'0 0.0
2018-Jul-15 05:57N 29°22' W 094°53'0 0.0
2018-Jul-15 05:26N 29°22' W 094°53'0 0.0
2018-Jul-15 04:56N 29°22' W 094°53'0 0.0
2018-Jul-15 04:17N 29°22' W 094°53'0 0.0
2018-Jul-14 21:26N 29°22' W 094°53'0 0.0
2018-Jul-14 20:59N 29°22' W 094°53'0 0.0
2018-Jul-14 20:27N 29°22' W 094°53'0 0.0
2018-Jul-14 20:00N 29°22' W 094°53'0 0.0
2018-Jul-14 19:02N 29°22' W 094°53'0 0.0
2018-Jul-14 19:00N 29°22' W 094°53'0 0.0
2018-Jul-14 18:30N 29°22' W 094°53'0 0.0
2018-Jul-14 17:34N 29°22' W 094°53'0 0.2
2018-Jul-14 17:30N 29°22' W 094°53'0 0.0
2018-Jul-14 17:00N 29°22' W 094°53'0 0.0
2018-Jul-14 16:30N 29°22' W 094°53'0 0.0
2018-Jul-14 15:58N 29°22' W 094°53'0 0.0
2018-Jul-14 11:15N 29°22' W 094°53'0 0.2
2018-Jul-14 11:01N 29°22' W 094°53'0 0.0
2018-Jul-14 10:20N 29°22' W 094°53'0 0.6
2018-Jul-14 10:00N 29°22' W 094°53'3 6.2
2018-Jul-14 09:30N 29°22' W 094°50'3 5.9
2018-Jul-14 09:00N 29°23' W 094°46'3 5.7
2018-Jul-14 08:30N 29°25' W 094°44'1 1.4
2018-Jul-14 08:00N 29°25' W 094°43'0 0.4
2018-Jul-14 07:30N 29°25' W 094°43'0 0.2
2018-Jul-14 06:59N 29°25' W 094°43'0 0.4
2018-Jul-14 06:30N 29°25' W 094°43'0 0.0
2018-Jul-14 06:00N 29°25' W 094°43'0 0.0
2018-Jul-14 05:29N 29°25' W 094°43'0 0.0
2018-Jul-14 05:00N 29°25' W 094°43'1 1.2
2018-Jul-14 04:29N 29°26' W 094°43'0 0.0
2018-Jul-14 03:58N 29°26' W 094°43'0 0.0
2018-Jul-14 03:22N 29°26' W 094°43'1 0.8
2018-Jul-14 02:36N 29°25' W 094°43'0 0.0
2018-Jul-14 01:40N 29°25' W 094°43'0 0.0
2018-Jul-14 01:30N 29°25' W 094°43'0 0.0
2018-Jul-14 00:58N 29°25' W 094°43'0 0.0
2018-Jul-14 00:30N 29°25' W 094°43'0 0.0
2018-Jul-13 23:51N 29°25' W 094°43'0 0.0
2018-Jul-13 23:24N 29°25' W 094°43'0 0.0
2018-Jul-13 22:59N 29°25' W 094°43'0 0.0
2018-Jul-13 22:30N 29°25' W 094°43'0 0.0
2018-Jul-13 21:56N 29°25' W 094°43'0 0.0
2018-Jul-13 21:29N 29°25' W 094°43'0 0.0
2018-Jul-13 20:52N 29°25' W 094°43'0 0.0
2018-Jul-13 20:29N 29°25' W 094°43'0 0.0
2018-Jul-13 19:58N 29°25' W 094°43'0 0.0
2018-Jul-13 19:23N 29°25' W 094°43'0 0.0
2018-Jul-13 18:56N 29°25' W 094°43'0 0.0
2018-Jul-13 18:30N 29°25' W 094°43'0 0.0
2018-Jul-13 17:59N 29°25' W 094°43'0 0.0
2018-Jul-13 17:24N 29°25' W 094°43'0 0.0
2018-Jul-13 16:59N 29°25' W 094°43'0 0.0
2018-Jul-13 16:30N 29°25' W 094°43'0 0.0
2018-Jul-13 16:00N 29°25' W 094°43'0 0.0
2018-Jul-13 15:28N 29°25' W 094°43'0 0.0
2018-Jul-13 14:57N 29°25' W 094°43'0 0.0
2018-Jul-13 14:26N 29°25' W 094°43'0 0.0
2018-Jul-13 12:58N 29°25' W 094°43'0 0.0
2018-Jul-13 12:28N 29°25' W 094°43'0 0.0
2018-Jul-13 12:00N 29°25' W 094°43'0 0.0
2018-Jul-13 11:28N 29°25' W 094°43'0 0.0
2018-Jul-13 10:52N 29°25' W 094°43'0 0.0
2018-Jul-13 10:27N 29°25' W 094°43'0 0.0
2018-Jul-13 09:59N 29°25' W 094°43'0 0.0
2018-Jul-13 09:14N 29°25' W 094°43'0 0.0
2018-Jul-13 08:58N 29°25' W 094°43'0 0.0
2018-Jul-13 08:28N 29°25' W 094°43'0 0.0
2018-Jul-13 07:58N 29°25' W 094°43'0 0.0
2018-Jul-13 07:28N 29°25' W 094°43'0 0.0
2018-Jul-13 07:00N 29°25' W 094°43'0 0.0
2018-Jul-13 06:14N 29°25' W 094°43'0 0.0
2018-Jul-13 05:55N 29°25' W 094°43'0 0.0
2018-Jul-13 05:28N 29°25' W 094°43'0 0.0
2018-Jul-13 04:58N 29°25' W 094°43'0 0.0
2018-Jul-13 04:25N 29°25' W 094°43'0 0.0
2018-Jul-13 04:00N 29°25' W 094°43'0 0.0
2018-Jul-13 03:30N 29°25' W 094°43'0 0.0
2018-Jul-13 02:55N 29°25' W 094°43'0 0.0
2018-Jul-13 02:30N 29°25' W 094°43'0 0.0
2018-Jul-13 01:23N 29°25' W 094°43'0 0.0
2018-Jul-13 00:55N 29°25' W 094°43'0 0.0
2018-Jul-13 00:28N 29°25' W 094°43'0 0.0
2018-Jul-12 23:59N 29°25' W 094°43'0 0.0
2018-Jul-12 22:49N 29°25' W 094°43'0 0.0
2018-Jul-12 22:25N 29°25' W 094°43'0 0.0
2018-Jul-12 21:59N 29°25' W 094°43'0 0.0
2018-Jul-12 21:30N 29°25' W 094°43'0 0.0
2018-Jul-12 20:54N 29°25' W 094°43'0 0.0
2018-Jul-12 20:27N 29°25' W 094°43'0 0.0
2018-Jul-12 19:58N 29°25' W 094°43'0 0.0
2018-Jul-12 19:27N 29°25' W 094°43'0 0.0
2018-Jul-12 18:47N 29°25' W 094°43'0 0.0
2018-Jul-12 18:30N 29°25' W 094°43'0 0.0
2018-Jul-12 17:55N 29°25' W 094°43'0 0.0
2018-Jul-12 17:18N 29°25' W 094°43'0 0.0
2018-Jul-12 15:38N 29°25' W 094°43'0 0.0
2018-Jul-12 14:00N 29°25' W 094°43'0 0.0
2018-Jul-12 13:30N 29°25' W 094°43'0 0.6
2018-Jul-12 13:00N 29°25' W 094°44'4 6.6
2018-Jul-12 12:23N 29°22' W 094°47'7 5.4
2018-Jul-12 11:00N 29°29' W 094°52'3 6.5
2018-Jul-12 10:30N 29°31' W 094°53'3 6.5
2018-Jul-12 10:00N 29°34' W 094°55'4 7.2
2018-Jul-12 09:30N 29°37' W 094°58'4 7.7
2018-Jul-12 09:00N 29°41' W 094°59'4 6.7
2018-Jul-12 08:27N 29°44' W 095°02'3 7.0
2018-Jul-12 07:59N 29°46' W 095°05'2 0.1
2018-Jul-11 13:26N 29°45' W 095°06'1 0.2
2018-Jul-11 06:00N 29°46' W 095°05'0 0.4
2018-Jul-11 05:25N 29°46' W 095°06'0 0.4
2018-Jul-11 05:00N 29°46' W 095°05'1 0.2
2018-Jul-10 21:22N 29°45' W 095°06'3 4.5
2018-Jul-10 20:43N 29°44' W 095°09'1 0.2
2018-Jul-10 14:51N 29°45' W 095°10'0 0.0
2018-Jul-10 14:24N 29°45' W 095°10'0 0.1
2018-Jul-10 13:59N 29°45' W 095°10'0 0.0
2018-Jul-10 13:20N 29°45' W 095°10'0 0.0
2018-Jul-10 13:00N 29°45' W 095°10'0 0.0
2018-Jul-10 12:28N 29°45' W 095°10'0 0.0
2018-Jul-10 12:00N 29°45' W 095°10'0 0.0
2018-Jul-10 11:30N 29°45' W 095°10'0 0.0
2018-Jul-10 10:59N 29°45' W 095°10'0 0.0
2018-Jul-10 10:30N 29°45' W 095°10'0 0.0
2018-Jul-10 10:00N 29°45' W 095°10'0 0.0
2018-Jul-10 09:30N 29°45' W 095°10'0 0.0
2018-Jul-10 09:00N 29°45' W 095°10'0 0.0
2018-Jul-10 08:28N 29°45' W 095°10'0 0.0
2018-Jul-10 07:59N 29°45' W 095°10'0 0.0
2018-Jul-10 07:28N 29°45' W 095°10'0 0.0
2018-Jul-10 07:00N 29°45' W 095°10'0 0.0
2018-Jul-10 06:30N 29°45' W 095°10'0 0.0
2018-Jul-10 05:58N 29°45' W 095°10'0 0.0
2018-Jul-10 05:29N 29°45' W 095°10'0 0.0
2018-Jul-10 04:59N 29°45' W 095°10'0 0.1
2018-Jul-10 04:29N 29°45' W 095°10'0 0.0
2018-Jul-10 03:56N 29°45' W 095°10'0 0.0
2018-Jul-10 03:23N 29°45' W 095°10'1 3.0
2018-Jul-10 03:00N 29°44' W 095°09'4 5.7
2018-Jul-10 02:22N 29°46' W 095°05'2 5.1
2018-Jul-10 01:58N 29°44' W 095°04'3 5.3
2018-Jul-10 01:30N 29°43' W 095°01'2 4.8
2018-Jul-10 01:00N 29°41' W 094°59'3 5.7
2018-Jul-10 00:29N 29°39' W 094°58'3 6.1
2018-Jul-09 23:59N 29°36' W 094°57'3 6.1
2018-Jul-09 23:30N 29°33' W 094°55'3 6.2
2018-Jul-09 23:00N 29°31' W 094°53'10 1.2
2018-Jul-09 14:52N 29°25' W 094°43'0 0.0
2018-Jul-09 14:30N 29°25' W 094°43'0 0.0
2018-Jul-08 20:39N 29°25' W 094°43'0 0.0
2018-Jul-08 20:28N 29°25' W 094°43'0 0.1
2018-Jul-08 15:09N 29°26' W 094°43'0 0.0
2018-Jul-08 14:59N 29°26' W 094°43'0 0.7
2018-Jul-08 14:25N 29°25' W 094°43'0 0.0
2018-Jul-08 13:58N 29°25' W 094°43'0 0.0
2018-Jul-08 13:19N 29°25' W 094°43'0 0.0
2018-Jul-08 13:00N 29°25' W 094°43'0 0.0
2018-Jul-08 10:37N 29°25' W 094°43'0 0.0
2018-Jul-08 10:15N 29°25' W 094°43'6 0.8
2018-Jul-08 02:45N 29°22' W 094°49'1 5.3
2018-Jul-08 02:29N 29°22' W 094°50'3 1.9
2018-Jul-08 01:03N 29°22' W 094°53'0 1.6
2018-Jul-08 00:59N 29°22' W 094°53'0 0.0
2018-Jul-08 00:30N 29°22' W 094°53'0 0.0
2018-Jul-07 23:56N 29°22' W 094°53'0 0.0
2018-Jul-07 23:30N 29°22' W 094°53'0 0.0
2018-Jul-07 23:00N 29°22' W 094°53'0 0.0
2018-Jul-07 22:29N 29°22' W 094°53'0 0.0
2018-Jul-07 21:53N 29°22' W 094°53'0 0.0
2018-Jul-07 21:27N 29°22' W 094°53'0 0.0
2018-Jul-07 21:00N 29°22' W 094°53'0 0.0
2018-Jul-07 20:29N 29°22' W 094°53'0 0.0
2018-Jul-07 19:55N 29°22' W 094°53'0 0.0
2018-Jul-07 19:26N 29°22' W 094°53'0 0.0
2018-Jul-07 18:55N 29°22' W 094°53'0 0.0
2018-Jul-07 17:52N 29°22' W 094°53'0 0.0
2018-Jul-07 17:28N 29°22' W 094°53'0 0.0
2018-Jul-07 17:00N 29°22' W 094°53'0 0.0
2018-Jul-07 16:17N 29°22' W 094°53'0 0.0
2018-Jul-07 15:57N 29°22' W 094°53'0 0.0
2018-Jul-07 15:30N 29°22' W 094°53'0 0.0
2018-Jul-07 14:55N 29°22' W 094°53'0 0.0
2018-Jul-07 14:30N 29°22' W 094°53'0 0.0
2018-Jul-07 14:00N 29°22' W 094°53'0 0.0
2018-Jul-07 13:00N 29°22' W 094°53'0 0.0
2018-Jul-07 12:30N 29°22' W 094°53'0 0.0
2018-Jul-07 11:59N 29°22' W 094°53'0 0.0
2018-Jul-07 11:28N 29°22' W 094°53'0 0.0
2018-Jul-07 10:55N 29°22' W 094°53'0 0.0
2018-Jul-07 07:36N 29°22' W 094°53'0 0.1
2018-Jul-07 06:24N 29°22' W 094°53'0 0.1
2018-Jul-07 05:14N 29°22' W 094°53'0 0.0
2018-Jul-07 04:51N 29°22' W 094°53'0 0.0
2018-Jul-07 04:24N 29°22' W 094°53'0 0.0
2018-Jul-07 03:50N 29°22' W 094°53'0 0.0
2018-Jul-07 03:21N 29°22' W 094°53'0 0.0
2018-Jul-06 23:21N 29°22' W 094°53'0 0.0
2018-Jul-06 20:59N 29°22' W 094°53'0 0.0
2018-Jul-06 20:26N 29°22' W 094°53'0 0.0
2018-Jul-06 19:53N 29°22' W 094°53'0 0.0
2018-Jul-06 19:19N 29°22' W 094°53'0 0.0
2018-Jul-06 17:22N 29°22' W 094°53'0 0.0
2018-Jul-06 17:00N 29°22' W 094°53'0 0.0
2018-Jul-06 16:29N 29°22' W 094°53'0 0.0
2018-Jul-06 16:00N 29°22' W 094°53'0 0.0
2018-Jul-06 15:30N 29°22' W 094°53'0 0.0
2018-Jul-06 15:00N 29°22' W 094°53'0 0.0
2018-Jul-06 14:30N 29°22' W 094°53'  
Track history (hours):
 
Tides and Currents Weather Stations Pressure Air Temp Water Temp Dewpoint Dewpoint Depression Visibility Wind Speed Wind Dir Waves Ship Positions

Cole Guidry

Owner: Danielle Marine Towing LLC, Cut Off, LA. More information available from US FCC via Universal Licensing System and Coast Guard Vessel Documentation Center.

Last reported at 2018-Jul-16 14:00 UTC. Time now 2018-Jul-16 14:29 UTC.
Position N 29°49' W 093°59'.

Length 24 m; draft 3 m.

Type: . MMSI: 367764630.

Date/timePositionNaut miles runAvg speedWind from/ knotsBaromVisibWave heightAir tempDewpointWater temp
2018-Jul-16 14:00N 29°49' W 093°59'2 4.6
2018-Jul-16 13:30N 29°47' W 094°01'2 4.7
2018-Jul-16 13:00N 29°46' W 094°03'2 4.6
2018-Jul-16 12:30N 29°44' W 094°05'2 4.4
2018-Jul-16 12:00N 29°43' W 094°07'2 3.8
2018-Jul-16 11:30N 29°42' W 094°09'2 3.8
2018-Jul-16 11:00N 29°41' W 094°11'2 5.0
2018-Jul-16 10:31N 29°40' W 094°13'2 4.8
2018-Jul-16 10:01N 29°39' W 094°16'2 4.8
2018-Jul-16 09:30N 29°38' W 094°18'2 4.9
2018-Jul-16 09:00N 29°37' W 094°21'2 4.5
2018-Jul-16 08:30N 29°36' W 094°23'2 3.2
2018-Jul-16 07:59N 29°35' W 094°25'2 4.2
2018-Jul-16 07:30N 29°34' W 094°27'2 4.7
2018-Jul-16 07:00N 29°32' W 094°29'3 4.6
2018-Jul-16 06:27N 29°31' W 094°31'1 3.3
2018-Jul-16 06:00N 29°30' W 094°33'2 4.7
2018-Jul-16 05:30N 29°29' W 094°35'2 4.8
2018-Jul-16 05:00N 29°28' W 094°38'2 4.8
2018-Jul-16 04:30N 29°27' W 094°40'1 2.5
2018-Jul-16 04:00N 29°27' W 094°42'2 3.5
2018-Jul-16 03:28N 29°26' W 094°43'0 0.8
2018-Jul-16 03:00N 29°25' W 094°43'2 3.1
2018-Jul-16 02:17N 29°24' W 094°45'1 4.5
2018-Jul-16 02:00N 29°23' W 094°46'3 5.8
2018-Jul-16 01:30N 29°22' W 094°50'3 5.7
2018-Jul-16 01:00N 29°23' W 094°53'1 1.4
2018-Jul-16 00:28N 29°22' W 094°53'0 0.0
2018-Jul-15 17:06N 29°22' W 094°53'0 0.1
2018-Jul-15 17:00N 29°22' W 094°53'0 0.0
2018-Jul-15 12:13N 29°22' W 094°53'0 0.0
2018-Jul-15 11:59N 29°22' W 094°53'0 0.0
2018-Jul-15 11:30N 29°22' W 094°53'0 0.0
2018-Jul-15 10:56N 29°22' W 094°53'0 0.0
2018-Jul-15 10:28N 29°22' W 094°53'0 0.0
2018-Jul-15 09:59N 29°22' W 094°53'0 0.0
2018-Jul-15 08:22N 29°22' W 094°53'0 0.0
2018-Jul-15 07:47N 29°22' W 094°53'0 0.0
2018-Jul-15 07:29N 29°22' W 094°53'0 0.0
2018-Jul-15 06:54N 29°22' W 094°53'0 0.0
2018-Jul-15 06:13N 29°22' W 094°53'0 0.0
2018-Jul-15 05:57N 29°22' W 094°53'0 0.0
2018-Jul-15 05:26N 29°22' W 094°53'0 0.0
2018-Jul-15 04:56N 29°22' W 094°53'0 0.0
2018-Jul-15 04:17N 29°22' W 094°53'0 0.0
2018-Jul-14 21:26N 29°22' W 094°53'0 0.0
2018-Jul-14 20:59N 29°22' W 094°53'0 0.0
2018-Jul-14 20:27N 29°22' W 094°53'0 0.0
2018-Jul-14 20:00N 29°22' W 094°53'0 0.0
2018-Jul-14 19:02N 29°22' W 094°53'0 0.0
2018-Jul-14 19:00N 29°22' W 094°53'0 0.0
2018-Jul-14 18:30N 29°22' W 094°53'0 0.0
2018-Jul-14 17:34N 29°22' W 094°53'0 0.2
2018-Jul-14 17:30N 29°22' W 094°53'0 0.0
2018-Jul-14 17:00N 29°22' W 094°53'0 0.0
2018-Jul-14 16:30N 29°22' W 094°53'0 0.0
2018-Jul-14 15:58N 29°22' W 094°53'0 0.0
2018-Jul-14 11:15N 29°22' W 094°53'0 0.2
2018-Jul-14 11:01N 29°22' W 094°53'0 0.0
2018-Jul-14 10:20N 29°22' W 094°53'0 0.6
2018-Jul-14 10:00N 29°22' W 094°53'3 6.2
2018-Jul-14 09:30N 29°22' W 094°50'3 5.9
2018-Jul-14 09:00N 29°23' W 094°46'3 5.7
2018-Jul-14 08:30N 29°25' W 094°44'1 1.4
2018-Jul-14 08:00N 29°25' W 094°43'0 0.4
2018-Jul-14 07:30N 29°25' W 094°43'0 0.2
2018-Jul-14 06:59N 29°25' W 094°43'0 0.4
2018-Jul-14 06:30N 29°25' W 094°43'0 0.0
2018-Jul-14 06:00N 29°25' W 094°43'0 0.0
2018-Jul-14 05:29N 29°25' W 094°43'0 0.0
2018-Jul-14 05:00N 29°25' W 094°43'1 1.2
2018-Jul-14 04:29N 29°26' W 094°43'0 0.0
2018-Jul-14 03:58N 29°26' W 094°43'0 0.0
2018-Jul-14 03:22N 29°26' W 094°43'1 0.8
2018-Jul-14 02:36N 29°25' W 094°43'0 0.0
2018-Jul-14 01:40N 29°25' W 094°43'0 0.0
2018-Jul-14 01:30N 29°25' W 094°43'0 0.0
2018-Jul-14 00:58N 29°25' W 094°43'0 0.0
2018-Jul-14 00:30N 29°25' W 094°43'0 0.0
2018-Jul-13 23:51N 29°25' W 094°43'0 0.0
2018-Jul-13 23:24N 29°25' W 094°43'0 0.0
2018-Jul-13 22:59N 29°25' W 094°43'0 0.0
2018-Jul-13 22:30N 29°25' W 094°43'0 0.0
2018-Jul-13 21:56N 29°25' W 094°43'0 0.0
2018-Jul-13 21:29N 29°25' W 094°43'0 0.0
2018-Jul-13 20:52N 29°25' W 094°43'0 0.0
2018-Jul-13 20:29N 29°25' W 094°43'0 0.0
2018-Jul-13 19:58N 29°25' W 094°43'0 0.0
2018-Jul-13 19:23N 29°25' W 094°43'0 0.0
2018-Jul-13 18:56N 29°25' W 094°43'0 0.0
2018-Jul-13 18:30N 29°25' W 094°43'0 0.0
2018-Jul-13 17:59N 29°25' W 094°43'0 0.0
2018-Jul-13 17:24N 29°25' W 094°43'0 0.0
2018-Jul-13 16:59N 29°25' W 094°43'0 0.0
2018-Jul-13 16:30N 29°25' W 094°43'0 0.0
2018-Jul-13 16:00N 29°25' W 094°43'0 0.0
2018-Jul-13 15:28N 29°25' W 094°43'0 0.0
2018-Jul-13 14:57N 29°25' W 094°43'0 0.0
2018-Jul-13 14:26N 29°25' W 094°43'0 0.0
2018-Jul-13 12:58N 29°25' W 094°43'0 0.0
2018-Jul-13 12:28N 29°25' W 094°43'0 0.0
2018-Jul-13 12:00N 29°25' W 094°43'0 0.0
2018-Jul-13 11:28N 29°25' W 094°43'0 0.0
2018-Jul-13 10:52N 29°25' W 094°43'0 0.0
2018-Jul-13 10:27N 29°25' W 094°43'0 0.0
2018-Jul-13 09:59N 29°25' W 094°43'0 0.0
2018-Jul-13 09:14N 29°25' W 094°43'0 0.0
2018-Jul-13 08:58N 29°25' W 094°43'0 0.0
2018-Jul-13 08:28N 29°25' W 094°43'0 0.0
2018-Jul-13 07:58N 29°25' W 094°43'0 0.0
2018-Jul-13 07:28N 29°25' W 094°43'0 0.0
2018-Jul-13 07:00N 29°25' W 094°43'0 0.0
2018-Jul-13 06:14N 29°25' W 094°43'0 0.0
2018-Jul-13 05:55N 29°25' W 094°43'0 0.0
2018-Jul-13 05:28N 29°25' W 094°43'0 0.0
2018-Jul-13 04:58N 29°25' W 094°43'0 0.0
2018-Jul-13 04:25N 29°25' W 094°43'0 0.0
2018-Jul-13 04:00N 29°25' W 094°43'0 0.0
2018-Jul-13 03:30N 29°25' W 094°43'0 0.0
2018-Jul-13 02:55N 29°25' W 094°43'0 0.0
2018-Jul-13 02:30N 29°25' W 094°43'0 0.0
2018-Jul-13 01:23N 29°25' W 094°43'0 0.0
2018-Jul-13 00:55N 29°25' W 094°43'0 0.0
2018-Jul-13 00:28N 29°25' W 094°43'0 0.0
2018-Jul-12 23:59N 29°25' W 094°43'0 0.0
2018-Jul-12 22:49N 29°25' W 094°43'0 0.0
2018-Jul-12 22:25N 29°25' W 094°43'0 0.0
2018-Jul-12 21:59N 29°25' W 094°43'0 0.0
2018-Jul-12 21:30N 29°25' W 094°43'0 0.0
2018-Jul-12 20:54N 29°25' W 094°43'0 0.0
2018-Jul-12 20:27N 29°25' W 094°43'0 0.0
2018-Jul-12 19:58N 29°25' W 094°43'0 0.0
2018-Jul-12 19:27N 29°25' W 094°43'0 0.0
2018-Jul-12 18:47N 29°25' W 094°43'0 0.0
2018-Jul-12 18:30N 29°25' W 094°43'0 0.0
2018-Jul-12 17:55N 29°25' W 094°43'0 0.0
2018-Jul-12 17:18N 29°25' W 094°43'0 0.0
2018-Jul-12 15:38N 29°25' W 094°43'0 0.0
2018-Jul-12 14:00N 29°25' W 094°43'0 0.0
2018-Jul-12 13:30N 29°25' W 094°43'0 0.6
2018-Jul-12 13:00N 29°25' W 094°44'4 6.6
2018-Jul-12 12:23N 29°22' W 094°47'7 5.4
2018-Jul-12 11:00N 29°29' W 094°52'3 6.5
2018-Jul-12 10:30N 29°31' W 094°53'3 6.5
2018-Jul-12 10:00N 29°34' W 094°55'4 7.2
2018-Jul-12 09:30N 29°37' W 094°58'4 7.7
2018-Jul-12 09:00N 29°41' W 094°59'4 6.7
2018-Jul-12 08:27N 29°44' W 095°02'3 7.0
2018-Jul-12 07:59N 29°46' W 095°05'2 0.1
2018-Jul-11 13:26N 29°45' W 095°06'1 0.2
2018-Jul-11 06:00N 29°46' W 095°05'0 0.4
2018-Jul-11 05:25N 29°46' W 095°06'0 0.4
2018-Jul-11 05:00N 29°46' W 095°05'1 0.2
2018-Jul-10 21:22N 29°45' W 095°06'3 4.5
2018-Jul-10 20:43N 29°44' W 095°09'1 0.2
2018-Jul-10 14:51N 29°45' W 095°10'0 0.0
2018-Jul-10 14:24N 29°45' W 095°10'0 0.1
2018-Jul-10 13:59N 29°45' W 095°10'0 0.0
2018-Jul-10 13:20N 29°45' W 095°10'0 0.0
2018-Jul-10 13:00N 29°45' W 095°10'0 0.0
2018-Jul-10 12:28N 29°45' W 095°10'0 0.0
2018-Jul-10 12:00N 29°45' W 095°10'0 0.0
2018-Jul-10 11:30N 29°45' W 095°10'0 0.0
2018-Jul-10 10:59N 29°45' W 095°10'0 0.0
2018-Jul-10 10:30N 29°45' W 095°10'0 0.0
2018-Jul-10 10:00N 29°45' W 095°10'0 0.0
2018-Jul-10 09:30N 29°45' W 095°10'0 0.0
2018-Jul-10 09:00N 29°45' W 095°10'0 0.0
2018-Jul-10 08:28N 29°45' W 095°10'0 0.0
2018-Jul-10 07:59N 29°45' W 095°10'0 0.0
2018-Jul-10 07:28N 29°45' W 095°10'0 0.0
2018-Jul-10 07:00N 29°45' W 095°10'0 0.0
2018-Jul-10 06:30N 29°45' W 095°10'0 0.0
2018-Jul-10 05:58N 29°45' W 095°10'0 0.0
2018-Jul-10 05:29N 29°45' W 095°10'0 0.0
2018-Jul-10 04:59N 29°45' W 095°10'0 0.1
2018-Jul-10 04:29N 29°45' W 095°10'0 0.0
2018-Jul-10 03:56N 29°45' W 095°10'0 0.0
2018-Jul-10 03:23N 29°45' W 095°10'1 3.0
2018-Jul-10 03:00N 29°44' W 095°09'4 5.7
2018-Jul-10 02:22N 29°46' W 095°05'2 5.1
2018-Jul-10 01:58N 29°44' W 095°04'3 5.3
2018-Jul-10 01:30N 29°43' W 095°01'2 4.8
2018-Jul-10 01:00N 29°41' W 094°59'3 5.7
2018-Jul-10 00:29N 29°39' W 094°58'3 6.1
2018-Jul-09 23:59N 29°36' W 094°57'3 6.1
2018-Jul-09 23:30N 29°33' W 094°55'3 6.2
2018-Jul-09 23:00N 29°31' W 094°53'10 1.2
2018-Jul-09 14:52N 29°25' W 094°43'0 0.0
2018-Jul-09 14:30N 29°25' W 094°43'0 0.0
2018-Jul-08 20:39N 29°25' W 094°43'0 0.0
2018-Jul-08 20:28N 29°25' W 094°43'0 0.1
2018-Jul-08 15:09N 29°26' W 094°43'0 0.0
2018-Jul-08 14:59N 29°26' W 094°43'0 0.7
2018-Jul-08 14:25N 29°25' W 094°43'0 0.0
2018-Jul-08 13:58N 29°25' W 094°43'0 0.0
2018-Jul-08 13:19N 29°25' W 094°43'0 0.0
2018-Jul-08 13:00N 29°25' W 094°43'0 0.0
2018-Jul-08 10:37N 29°25' W 094°43'0 0.0
2018-Jul-08 10:15N 29°25' W 094°43'6 0.8
2018-Jul-08 02:45N 29°22' W 094°49'1 5.3
2018-Jul-08 02:29N 29°22' W 094°50'3 1.9
2018-Jul-08 01:03N 29°22' W 094°53'0 1.6
2018-Jul-08 00:59N 29°22' W 094°53'0 0.0
2018-Jul-08 00:30N 29°22' W 094°53'0 0.0
2018-Jul-07 23:56N 29°22' W 094°53'0 0.0
2018-Jul-07 23:30N 29°22' W 094°53'0 0.0
2018-Jul-07 23:00N 29°22' W 094°53'0 0.0
2018-Jul-07 22:29N 29°22' W 094°53'0 0.0
2018-Jul-07 21:53N 29°22' W 094°53'0 0.0
2018-Jul-07 21:27N 29°22' W 094°53'0 0.0
2018-Jul-07 21:00N 29°22' W 094°53'0 0.0
2018-Jul-07 20:29N 29°22' W 094°53'0 0.0
2018-Jul-07 19:55N 29°22' W 094°53'0 0.0
2018-Jul-07 19:26N 29°22' W 094°53'0 0.0
2018-Jul-07 18:55N 29°22' W 094°53'0 0.0
2018-Jul-07 17:52N 29°22' W 094°53'0 0.0
2018-Jul-07 17:28N 29°22' W 094°53'0 0.0
2018-Jul-07 17:00N 29°22' W 094°53'0 0.0
2018-Jul-07 16:17N 29°22' W 094°53'0 0.0
2018-Jul-07 15:57N 29°22' W 094°53'0 0.0
2018-Jul-07 15:30N 29°22' W 094°53'0 0.0
2018-Jul-07 14:55N 29°22' W 094°53'0 0.0
2018-Jul-07 14:30N 29°22' W 094°53'0 0.0
2018-Jul-07 14:00N 29°22' W 094°53'0 0.0
2018-Jul-07 13:00N 29°22' W 094°53'0 0.0
2018-Jul-07 12:30N 29°22' W 094°53'0 0.0
2018-Jul-07 11:59N 29°22' W 094°53'0 0.0
2018-Jul-07 11:28N 29°22' W 094°53'0 0.0
2018-Jul-07 10:55N 29°22' W 094°53'0 0.0
2018-Jul-07 07:36N 29°22' W 094°53'0 0.1
2018-Jul-07 06:24N 29°22' W 094°53'0 0.1
2018-Jul-07 05:14N 29°22' W 094°53'0 0.0
2018-Jul-07 04:51N 29°22' W 094°53'0 0.0
2018-Jul-07 04:24N 29°22' W 094°53'0 0.0
2018-Jul-07 03:50N 29°22' W 094°53'0 0.0
2018-Jul-07 03:21N 29°22' W 094°53'0 0.0
2018-Jul-06 23:21N 29°22' W 094°53'0 0.0
2018-Jul-06 20:59N 29°22' W 094°53'0 0.0
2018-Jul-06 20:26N 29°22' W 094°53'0 0.0
2018-Jul-06 19:53N 29°22' W 094°53'0 0.0
2018-Jul-06 19:19N 29°22' W 094°53'0 0.0
2018-Jul-06 17:22N 29°22' W 094°53'0 0.0
2018-Jul-06 17:00N 29°22' W 094°53'0 0.0
2018-Jul-06 16:29N 29°22' W 094°53'0 0.0
2018-Jul-06 16:00N 29°22' W 094°53'0 0.0
2018-Jul-06 15:30N 29°22' W 094°53'0 0.0
2018-Jul-06 15:00N 29°22' W 094°53'0 0.0
2018-Jul-06 14:30N 29°22' W 094°53'  

Dump ship's entire track history